Terminal Aerodrome Forecast
Issued by NWS Mobile, AL

Home | Current Version | Previous Version | Text Only | Print | Product List | Glossary On
Versions: 1 2 3 4 5 6 7 8 9 10 11 12 13 14 15 16 17 18 19 20 21
000
FTUS44 KMOB 211740
TAFMOB
TAF
KMOB 211740Z 2118/2218 VRB05KT P6SM FEW040 SCT150
     FM220000 19013KT 6SM BR SCT007 BKN015
      TEMPO 2201/2205 VRB15G25KT 3SM TSRA BR SCT005 OVC015CB
     FM220600 20010KT 1SM BR BKN005
     FM221500 24012G20KT P6SM SCT030 BKN100=

USA.gov is the U.S. government's official web portal to all federal, state and local government web resources and services.